Time;durP1;ratioP1;P1;durP2;ratioP2;P2;SDS_P1;SDS_P2;PMS_P1;PMS_P2;Temp;Humidity;BMP_temperature;BMP_pressure;BME280_temperature;BME280_humidity;BME280_pressure;Samples;Min_cycle;Max_cycle;Signal;HPM_P1;HPM_P2
2021/08/05 00:01:53;;;;;;;2.13;2.03;;;24.00;56.80;;;;;;5100912;28;20650;-72
2021/08/05 00:04:23;;;;;;;1.80;1.70;;;24.00;56.80;;;;;;5108661;28;20227;-72
2021/08/05 00:06:50;;;;;;;2.50;2.30;;;24.00;56.80;;;;;;5101780;28;20205;-72
2021/08/05 00:09:20;;;;;;;1.93;1.83;;;24.00;56.80;;;;;;5107174;28;20197;-72
2021/08/05 00:11:49;;;;;;;2.20;2.10;;;24.00;56.80;;;;;;5100535;28;20828;-72
2021/08/05 00:14:22;;;;;;;2.00;1.90;;;23.90;56.70;;;;;;5104487;28;20208;-72
2021/08/05 00:16:50;;;;;;;1.90;1.80;;;24.00;56.80;;;;;;5106685;28;20196;-72
2021/08/05 00:19:18;;;;;;;1.83;1.73;;;23.90;56.70;;;;;;5106003;28;20213;-72
2021/08/05 00:21:49;;;;;;;2.10;2.00;;;23.90;56.70;;;;;;5106284;28;20261;-72
2021/08/05 00:24:20;;;;;;;2.00;1.90;;;23.90;56.70;;;;;;5099829;28;20321;-72
2021/08/05 00:26:55;;;;;;;1.77;1.67;;;24.00;56.80;;;;;;5103509;28;20659;-72
2021/08/05 00:29:25;;;;;;;2.00;1.90;;;23.90;56.70;;;;;;5097897;28;20201;-72
2021/08/05 00:31:53;;;;;;;2.00;1.90;;;23.90;56.70;;;;;;5098963;28;20224;-72
2021/08/05 00:34:23;;;;;;;1.87;1.77;;;23.90;56.80;;;;;;5098843;28;20211;-72
2021/08/05 00:36:54;;;;;;;1.93;1.83;;;23.90;56.80;;;;;;5107448;28;20260;-72
2021/08/05 00:39:26;;;;;;;2.27;2.10;;;23.90;56.80;;;;;;5100998;28;20189;-71
2021/08/05 00:41:59;;;;;;;2.00;1.90;;;23.90;56.80;;;;;;5108772;28;20208;-71
2021/08/05 00:44:30;;;;;;;1.80;1.70;;;23.90;56.80;;;;;;5097961;28;20205;-71
2021/08/05 00:47:01;;;;;;;2.20;2.10;;;23.90;56.80;;;;;;5107310;28;20232;-71
2021/08/05 00:49:29;;;;;;;2.10;1.90;;;23.90;56.80;;;;;;5101038;28;20202;-72
2021/08/05 00:51:57;;;;;;;2.07;1.97;;;23.90;56.80;;;;;;5103149;28;20569;-71
2021/08/05 00:54:27;;;;;;;2.00;1.90;;;23.90;56.80;;;;;;5103998;28;20762;-72
2021/08/05 00:56:58;;;;;;;1.90;1.80;;;23.90;56.80;;;;;;5103633;28;20285;-72
2021/08/05 00:59:29;;;;;;;2.03;1.93;;;23.90;56.70;;;;;;5096205;28;20204;-72
2021/08/05 01:02:07;;;;;;;2.00;1.90;;;23.90;56.80;;;;;;5101626;28;20220;-72
2021/08/05 01:04:53;;;;;;;2.00;1.90;;;23.90;56.80;;;;;;5088116;28;20701;-71
2021/08/05 01:07:34;;;;;;;2.00;1.90;;;23.80;56.70;;;;;;5086901;28;20204;-72
2021/08/05 01:10:13;;;;;;;2.10;2.00;;;23.80;56.70;;;;;;5100060;28;20191;-72
2021/08/05 01:13:04;;;;;;;2.17;2.07;;;23.80;56.70;;;;;;5103805;28;20192;-72
2021/08/05 01:15:39;;;;;;;2.20;2.10;;;23.80;56.70;;;;;;5108217;28;20826;-72
2021/08/05 01:18:36;;;;;;;1.93;1.80;;;23.80;56.80;;;;;;5110302;28;20278;-72
2021/08/05 01:21:31;;;;;;;1.80;1.70;;;23.80;56.80;;;;;;5105316;28;20184;-73
2021/08/05 01:24:10;;;;;;;2.07;1.97;;;23.80;56.70;;;;;;5095925;28;20203;-72
2021/08/05 01:26:55;;;;;;;2.10;2.00;;;23.80;56.80;;;;;;5109806;28;20196;-72
2021/08/05 01:29:33;;;;;;;2.33;2.20;;;23.80;56.80;;;;;;5101959;28;20205;-72
2021/08/05 01:32:07;;;;;;;2.27;2.10;;;23.70;56.80;;;;;;5088944;28;20199;-72
2021/08/05 01:34:37;;;;;;;2.40;2.30;;;23.80;56.80;;;;;;5109011;28;20199;-72
2021/08/05 01:37:08;;;;;;;2.20;2.00;;;23.80;56.80;;;;;;5111096;28;20207;-72
2021/08/05 01:39:43;;;;;;;2.10;2.00;;;23.80;56.80;;;;;;5107923;28;20256;-72
2021/08/05 01:42:16;;;;;;;2.10;2.00;;;23.80;56.80;;;;;;5096203;28;20588;-72
2021/08/05 01:44:46;;;;;;;1.90;1.80;;;23.70;56.80;;;;;;5125161;27;20672;-72
2021/08/05 01:47:16;;;;;;;2.17;2.07;;;23.70;56.80;;;;;;5103991;28;20204;-71
2021/08/05 01:49:45;;;;;;;2.13;2.03;;;23.70;56.80;;;;;;5101564;28;20236;-72
2021/08/05 01:52:19;;;;;;;2.23;2.13;;;23.70;56.90;;;;;;5105622;28;20337;-72
2021/08/05 01:54:48;;;;;;;2.20;2.00;;;23.70;56.90;;;;;;5101442;28;20534;-72
2021/08/05 01:57:21;;;;;;;1.90;1.80;;;23.70;56.90;;;;;;5111333;28;20196;-72
2021/08/05 01:59:49;;;;;;;2.00;1.90;;;23.70;56.90;;;;;;5103612;28;20189;-72
2021/08/05 02:02:17;;;;;;;2.10;2.00;;;23.70;56.90;;;;;;5105263;28;20208;-71
2021/08/05 02:05:05;;;;;;;2.20;2.10;;;23.70;56.90;;;;;;5097058;28;20235;-71
2021/08/05 02:07:39;;;;;;;2.10;2.00;;;23.70;56.90;;;;;;5102799;28;20276;-72
2021/08/05 02:10:29;;;;;;;2.17;2.07;;;23.60;56.90;;;;;;5094435;28;20193;-72
2021/08/05 02:13:35;;;;;;;2.30;2.10;;;23.70;56.90;;;;;;5098465;28;20213;-71
2021/08/05 02:16:07;;;;;;;2.50;2.30;;;23.70;56.90;;;;;;5126611;27;20693;-72
2021/08/05 02:18:43;;;;;;;2.20;2.10;;;23.60;56.90;;;;;;5115698;27;20269;-72
2021/08/05 02:21:18;;;;;;;2.40;2.20;;;23.60;56.90;;;;;;5099762;28;20223;-72
2021/08/05 02:23:46;;;;;;;2.00;1.90;;;23.60;56.90;;;;;;5109038;28;20323;-72
2021/08/05 02:26:28;;;;;;;2.40;2.20;;;23.60;56.90;;;;;;5106661;28;20791;-72
2021/08/05 02:28:59;;;;;;;1.90;1.80;;;23.60;56.90;;;;;;5104827;28;20211;-72
2021/08/05 02:31:27;;;;;;;2.07;1.97;;;23.60;56.90;;;;;;5104034;28;20200;-72
2021/08/05 02:33:58;;;;;;;2.27;2.10;;;23.60;56.90;;;;;;5092024;28;20204;-71
2021/08/05 02:36:31;;;;;;;2.03;1.93;;;23.60;57.00;;;;;;5089787;28;20629;-71
2021/08/05 02:39:05;;;;;;;2.30;2.10;;;23.60;56.90;;;;;;5110286;28;20209;-72
2021/08/05 02:41:34;;;;;;;2.37;2.27;;;23.60;56.90;;;;;;5103056;28;20193;-71
2021/08/05 02:44:07;;;;;;;2.20;2.10;;;23.60;57.00;;;;;;5109836;28;20262;-72
2021/08/05 02:46:35;;;;;;;2.20;2.10;;;23.60;56.90;;;;;;5120621;28;20192;-72
2021/08/05 02:49:12;;;;;;;2.33;2.23;;;23.60;56.90;;;;;;5128021;28;20216;-72
2021/08/05 02:51:41;;;;;;;2.27;2.07;;;23.60;57.00;;;;;;5124873;28;20217;-72
2021/08/05 02:54:09;;;;;;;2.40;2.20;;;23.60;56.90;;;;;;5116812;28;20473;-72
2021/08/05 02:56:43;;;;;;;2.20;2.10;;;23.60;57.00;;;;;;5119386;28;20244;-71
2021/08/05 02:59:45;;;;;;;2.60;2.40;;;23.60;56.90;;;;;;5108218;28;20200;-72
2021/08/05 03:02:24;;;;;;;2.30;2.10;;;23.60;57.00;;;;;;5098192;28;20704;-72
2021/08/05 03:04:53;;;;;;;2.10;2.00;;;23.60;57.00;;;;;;5103220;28;20216;-72
2021/08/05 03:07:25;;;;;;;2.43;2.33;;;23.50;56.90;;;;;;5097434;28;20209;-72
2021/08/05 03:09:56;;;;;;;2.10;2.00;;;23.60;57.00;;;;;;5099389;28;20619;-72
2021/08/05 03:12:27;;;;;;;2.47;2.27;;;23.60;57.00;;;;;;5092447;28;20604;-72
2021/08/05 03:14:59;;;;;;;2.57;2.37;;;23.50;57.00;;;;;;5104961;28;20230;-72
2021/08/05 03:17:30;;;;;;;2.30;2.20;;;23.50;57.00;;;;;;5104932;28;20196;-71
2021/08/05 03:19:59;;;;;;;2.10;2.00;;;23.50;57.00;;;;;;5098639;28;20252;-71
2021/08/05 03:22:31;;;;;;;2.00;1.90;;;23.50;57.00;;;;;;5099559;28;20200;-72
2021/08/05 03:25:03;;;;;;;2.00;1.90;;;23.50;57.00;;;;;;5104200;28;20208;-72
2021/08/05 03:27:35;;;;;;;2.00;1.90;;;23.50;57.00;;;;;;5104118;28;20196;-72
2021/08/05 03:30:18;;;;;;;2.23;2.13;;;23.50;57.00;;;;;;5091344;28;20267;-72
2021/08/05 03:32:49;;;;;;;2.30;2.20;;;23.50;57.00;;;;;;5103477;28;20200;-73
2021/08/05 03:35:18;;;;;;;2.30;2.20;;;23.50;57.00;;;;;;5107290;28;20204;-71
2021/08/05 03:37:50;;;;;;;2.60;2.40;;;23.50;57.00;;;;;;5106128;28;20242;-71
2021/08/05 03:40:18;;;;;;;2.00;1.90;;;23.50;57.00;;;;;;5109940;28;20208;-72
2021/08/05 03:42:48;;;;;;;2.53;2.37;;;23.50;57.00;;;;;;5100129;28;20295;-72
2021/08/05 03:45:16;;;;;;;2.20;2.10;;;23.50;57.10;;;;;;5108609;28;20707;-72
2021/08/05 03:47:46;;;;;;;2.30;2.10;;;23.40;56.90;;;;;;5102927;28;20193;-71
2021/08/05 03:50:17;;;;;;;2.27;2.13;;;23.50;57.10;;;;;;5107132;28;20196;-72
2021/08/05 03:52:48;;;;;;;2.20;2.10;;;23.50;57.10;;;;;;5100930;28;20661;-72
2021/08/05 03:55:19;;;;;;;2.47;2.27;;;23.40;57.60;;;;;;5091953;28;20252;-71
2021/08/05 03:58:11;;;;;;;2.20;2.10;;;23.40;56.90;;;;;;5102067;28;20197;-70
2021/08/05 04:01:05;;;;;;;2.80;2.30;;;23.50;57.00;;;;;;5107981;28;20216;-71
2021/08/05 04:03:36;;;;;;;2.10;2.00;;;23.40;56.90;;;;;;5107620;28;20334;-71
2021/08/05 04:06:10;;;;;;;2.30;2.20;;;23.40;56.90;;;;;;5107882;28;20197;-71
2021/08/05 04:08:42;;;;;;;2.23;2.13;;;23.40;56.90;;;;;;5097195;28;20188;-71
2021/08/05 04:11:10;;;;;;;2.47;2.30;;;23.50;56.90;;;;;;5095730;28;20228;-71
2021/08/05 04:13:38;;;;;;;2.40;2.30;;;23.40;56.80;;;;;;5100018;28;20208;-71
2021/08/05 04:16:08;;;;;;;2.73;2.53;;;23.40;56.90;;;;;;5100041;28;20597;-73
2021/08/05 04:18:37;;;;;;;2.90;2.70;;;23.40;56.80;;;;;;5098124;28;20228;-72
2021/08/05 04:21:04;;;;;;;2.80;2.60;;;23.40;56.70;;;;;;5101819;28;20561;-72
2021/08/05 04:23:35;;;;;;;2.23;2.13;;;23.40;56.70;;;;;;5101115;28;20234;-72
2021/08/05 04:26:03;;;;;;;2.87;2.67;;;23.40;56.70;;;;;;5101564;28;20180;-72
2021/08/05 04:28:34;;;;;;;2.60;2.40;;;23.40;56.70;;;;;;5105983;28;20193;-72
2021/08/05 04:31:05;;;;;;;2.80;2.60;;;23.40;56.70;;;;;;5103342;28;20196;-72
2021/08/05 04:33:36;;;;;;;2.50;2.40;;;23.50;56.70;;;;;;5104712;28;20196;-72
2021/08/05 04:36:06;;;;;;;2.80;2.60;;;23.40;56.60;;;;;;5089302;28;20185;-72
2021/08/05 04:38:34;;;;;;;3.07;2.87;;;23.40;56.60;;;;;;5098386;28;20201;-72
2021/08/05 04:41:13;;;;;;;2.63;2.43;;;23.40;56.60;;;;;;5105694;28;20188;-72
2021/08/05 04:43:43;;;;;;;2.90;2.70;;;23.40;56.60;;;;;;5097630;28;20216;-72
2021/08/05 04:46:14;;;;;;;2.90;2.70;;;23.40;56.60;;;;;;5094774;28;20196;-72
2021/08/05 04:48:43;;;;;;;3.07;2.87;;;23.40;56.60;;;;;;5099744;28;20209;-72
2021/08/05 04:51:16;;;;;;;2.63;2.50;;;23.40;56.60;;;;;;5090910;28;20185;-72
2021/08/05 04:53:45;;;;;;;2.83;2.63;;;23.40;56.60;;;;;;5088920;28;20707;-72
2021/08/05 04:56:17;;;;;;;3.40;3.20;;;23.40;56.50;;;;;;5107492;28;20232;-72
2021/08/05 04:59:01;;;;;;;3.17;2.97;;;23.30;56.50;;;;;;5098291;28;20295;-72
2021/08/05 05:01:33;;;;;;;2.97;2.77;;;23.40;56.50;;;;;;5102699;28;20218;-73
2021/08/05 05:04:04;;;;;;;3.00;2.80;;;23.40;56.50;;;;;;5096618;28;20607;-73
2021/08/05 05:06:34;;;;;;;3.20;3.00;;;23.40;56.50;;;;;;5098190;28;20246;-72
2021/08/05 05:09:09;;;;;;;2.90;2.70;;;23.40;56.50;;;;;;5107616;28;20671;-72
2021/08/05 05:11:37;;;;;;;3.20;2.90;;;23.30;56.40;;;;;;5098946;28;20209;-72
2021/08/05 05:14:08;;;;;;;2.93;2.73;;;23.30;56.40;;;;;;5107158;28;20184;-72
2021/08/05 05:16:39;;;;;;;3.03;2.83;;;23.40;56.40;;;;;;5098621;28;20217;-72
2021/08/05 05:19:11;;;;;;;3.37;3.07;;;23.40;56.40;;;;;;5104299;28;20204;-72
2021/08/05 05:21:40;;;;;;;2.80;2.60;;;23.30;56.30;;;;;;5100151;28;20211;-71
2021/08/05 05:24:07;;;;;;;2.73;2.53;;;23.40;56.40;;;;;;5097260;28;20724;-72
2021/08/05 05:26:51;;;;;;;2.57;2.37;;;23.30;56.30;;;;;;5099099;28;20200;-72
2021/08/05 05:29:20;;;;;;;3.03;2.83;;;23.30;56.30;;;;;;5106218;28;20239;-71
2021/08/05 05:31:54;;;;;;;3.10;2.90;;;23.30;56.30;;;;;;5098284;28;20188;-72
2021/08/05 05:34:25;;;;;;;3.10;2.90;;;23.30;56.30;;;;;;5095020;28;20193;-72
2021/08/05 05:36:53;;;;;;;3.20;3.00;;;23.30;56.30;;;;;;5099852;28;20198;-72
2021/08/05 05:39:24;;;;;;;3.00;2.80;;;23.30;56.30;;;;;;5101847;28;20861;-72
2021/08/05 05:42:05;;;;;;;2.90;2.70;;;23.40;56.30;;;;;;5095746;28;20188;-72
2021/08/05 05:44:36;;;;;;;3.10;2.90;;;23.30;56.20;;;;;;5102048;28;20209;-71
2021/08/05 05:47:07;;;;;;;3.23;3.03;;;23.30;56.20;;;;;;5107568;28;20215;-71
2021/08/05 05:49:44;;;;;;;2.93;2.73;;;23.30;56.20;;;;;;5099394;28;20200;-72
2021/08/05 05:52:15;;;;;;;2.90;2.70;;;23.30;56.20;;;;;;5100738;28;20197;-71
2021/08/05 05:54:42;;;;;;;3.30;2.87;;;23.40;56.20;;;;;;5100840;28;20252;-71
2021/08/05 05:57:15;;;;;;;3.13;2.93;;;23.30;56.20;;;;;;5100854;28;20717;-72
2021/08/05 05:59:47;;;;;;;2.70;2.50;;;23.30;56.80;;;;;;5095398;28;20199;-72
2021/08/05 06:02:16;;;;;;;3.10;2.90;;;23.30;56.10;;;;;;5097343;28;20243;-72
2021/08/05 06:04:47;;;;;;;3.10;2.90;;;23.30;56.10;;;;;;5101795;28;20254;-72
2021/08/05 06:07:16;;;;;;;3.50;3.20;;;23.30;56.10;;;;;;5107105;28;20239;-72
2021/08/05 06:09:46;;;;;;;3.30;3.10;;;23.30;56.10;;;;;;5103191;28;20224;-72
2021/08/05 06:12:18;;;;;;;3.10;2.90;;;23.30;56.10;;;;;;5104110;28;20677;-72
2021/08/05 06:14:52;;;;;;;3.10;2.90;;;23.30;56.10;;;;;;5110421;28;20227;-72
2021/08/05 06:17:22;;;;;;;3.27;2.97;;;23.30;56.10;;;;;;5105592;28;20209;-72
2021/08/05 06:19:48;;;;;;;3.20;3.00;;;23.30;56.10;;;;;;5096363;28;20197;-72
2021/08/05 06:22:16;;;;;;;3.33;3.03;;;23.30;56.10;;;;;;5100086;28;20795;-72
2021/08/05 06:24:46;;;;;;;3.20;3.00;;;23.30;56.10;;;;;;5111327;28;20251;-72
2021/08/05 06:27:15;;;;;;;3.30;3.10;;;23.40;56.10;;;;;;5100955;28;20373;-72
2021/08/05 06:29:46;;;;;;;3.80;3.50;;;23.30;56.00;;;;;;5102351;28;20236;-72
2021/08/05 06:32:17;;;;;;;3.50;3.30;;;23.40;56.10;;;;;;5099893;28;20193;-72
2021/08/05 06:34:46;;;;;;;3.50;3.30;;;23.30;56.00;;;;;;5104613;28;20204;-72
2021/08/05 06:37:14;;;;;;;3.73;3.50;;;23.40;56.10;;;;;;5098613;28;20215;-72
2021/08/05 06:39:43;;;;;;;4.27;3.97;;;23.30;56.00;;;;;;5091987;28;20295;-73
2021/08/05 06:42:12;;;;;;;3.70;3.50;;;23.30;56.00;;;;;;5107481;28;20220;-72
2021/08/05 06:44:41;;;;;;;4.03;3.73;;;23.30;56.10;;;;;;5109831;28;20291;-72
2021/08/05 06:47:13;;;;;;;4.10;3.80;;;23.30;56.10;;;;;;5106357;28;20188;-72
2021/08/05 06:49:43;;;;;;;4.10;3.80;;;23.30;56.70;;;;;;5083797;28;20201;-72
2021/08/05 06:52:14;;;;;;;4.33;4.03;;;23.30;56.10;;;;;;5106784;28;20188;-72
2021/08/05 06:54:45;;;;;;;4.40;4.10;;;23.30;56.10;;;;;;5104738;28;20202;-72
2021/08/05 06:57:15;;;;;;;4.60;4.30;;;23.30;56.20;;;;;;5100429;28;20189;-72
2021/08/05 06:59:45;;;;;;;4.20;3.90;;;23.30;56.20;;;;;;5099881;28;20324;-72
2021/08/05 07:02:16;;;;;;;4.30;4.00;;;23.40;56.20;;;;;;5107765;28;20201;-72
2021/08/05 07:04:47;;;;;;;4.97;4.57;;;23.30;56.20;;;;;;5103824;28;20695;-72
2021/08/05 07:07:22;;;;;;;4.50;4.20;;;23.30;56.10;;;;;;5107491;28;20193;-72
2021/08/05 07:09:59;;;;;;;4.47;4.17;;;23.30;56.20;;;;;;5098964;28;20204;-72
2021/08/05 07:12:28;;;;;;;4.43;4.13;;;23.40;56.20;;;;;;5108119;28;20232;-72
2021/08/05 07:14:57;;;;;;;4.43;4.13;;;23.30;56.10;;;;;;5083504;28;20224;-72
2021/08/05 07:17:29;;;;;;;4.23;3.93;;;23.30;56.10;;;;;;5107915;28;20235;-72
2021/08/05 07:19:59;;;;;;;3.93;3.63;;;23.30;56.10;;;;;;5096202;28;20223;-72
2021/08/05 07:22:27;;;;;;;4.37;4.03;;;23.30;56.10;;;;;;5099163;28;20200;-72
2021/08/05 07:24:54;;;;;;;4.07;3.77;;;23.30;56.10;;;;;;5093071;28;20205;-72
2021/08/05 07:27:25;;;;;;;4.80;4.40;;;23.40;56.20;;;;;;5097964;28;20209;-72
2021/08/05 07:29:55;;;;;;;4.83;4.43;;;23.40;56.20;;;;;;5098637;28;20197;-72
2021/08/05 07:32:26;;;;;;;5.00;4.60;;;23.40;56.10;;;;;;5099750;28;20200;-72
2021/08/05 07:34:57;;;;;;;4.60;4.30;;;23.40;56.10;;;;;;5103339;28;20201;-72
2021/08/05 07:37:27;;;;;;;4.70;4.30;;;23.40;56.10;;;;;;5099351;28;20266;-72
2021/08/05 07:39:55;;;;;;;4.43;4.13;;;23.40;56.20;;;;;;5106758;28;20669;-72
2021/08/05 07:42:25;;;;;;;4.47;4.07;;;23.40;56.20;;;;;;5102572;28;20194;-72
2021/08/05 07:45:00;;;;;;;4.90;4.50;;;23.40;56.10;;;;;;5095504;28;20228;-72
2021/08/05 07:47:31;;;;;;;4.70;4.40;;;23.40;56.20;;;;;;5102533;28;20233;-72
2021/08/05 07:50:09;;;;;;;4.60;4.27;;;23.40;56.20;;;;;;5107177;28;20581;-73
2021/08/05 07:52:38;;;;;;;4.37;4.03;;;23.50;56.20;;;;;;5107827;28;20192;-72
2021/08/05 07:55:19;;;;;;;5.00;4.60;;;23.40;56.20;;;;;;5105323;28;20281;-72
2021/08/05 07:57:52;;;;;;;5.00;4.60;;;23.40;56.20;;;;;;5101931;28;20200;-72
2021/08/05 08:00:21;;;;;;;5.20;4.70;;;23.40;56.20;;;;;;5098482;28;20220;-72
2021/08/05 08:03:10;;;;;;;5.37;4.97;;;23.40;56.20;;;;;;5103159;28;20196;-73
2021/08/05 08:05:44;;;;;;;5.57;5.13;;;23.40;56.20;;;;;;5102888;28;20302;-72
2021/08/05 08:08:19;;;;;;;6.23;5.43;;;23.40;56.20;;;;;;5108425;28;20200;-72
2021/08/05 08:10:49;;;;;;;6.30;5.70;;;23.40;56.20;;;;;;5097286;28;20205;-72
2021/08/05 08:13:29;;;;;;;6.97;6.47;;;23.50;56.30;;;;;;5108116;28;20226;-73
2021/08/05 08:16:01;;;;;;;6.50;6.00;;;23.50;56.30;;;;;;5098913;28;20203;-72
2021/08/05 08:18:32;;;;;;;6.30;5.80;;;23.50;56.30;;;;;;5096286;28;20196;-72
2021/08/05 08:21:08;;;;;;;7.13;6.60;;;23.50;56.30;;;;;;5102285;28;20211;-72
2021/08/05 08:23:36;;;;;;;6.50;6.00;;;23.50;56.30;;;;;;5106379;28;20211;-72
2021/08/05 08:26:07;;;;;;;8.20;7.47;;;23.50;56.30;;;;;;5099743;28;20773;-72
2021/08/05 08:28:36;;;;;;;6.83;6.33;;;23.50;56.30;;;;;;5106075;28;21643;-72
2021/08/05 08:31:12;;;;;;;7.60;7.00;;;23.50;56.30;;;;;;5086996;28;20559;-72
2021/08/05 08:33:43;;;;;;;7.60;6.90;;;23.50;56.30;;;;;;5101190;28;20201;-73
2021/08/05 08:36:14;;;;;;;7.73;7.13;;;23.60;56.40;;;;;;5089823;28;20653;-72
2021/08/05 08:38:46;;;;;;;6.87;6.37;;;23.50;56.40;;;;;;5102204;28;20211;-72
2021/08/05 08:41:22;;;;;;;8.00;7.40;;;23.60;56.40;;;;;;5097911;28;20254;-72
2021/08/05 08:43:51;;;;;;;7.63;7.03;;;23.60;56.40;;;;;;5099435;28;20207;-72
2021/08/05 08:46:34;;;;;;;6.83;6.33;;;23.50;56.30;;;;;;5091352;28;20280;-72
2021/08/05 08:49:24;;;;;;;7.77;7.17;;;23.60;56.40;;;;;;5099212;28;20187;-72
2021/08/05 08:51:55;;;;;;;6.90;6.30;;;23.60;56.40;;;;;;5104762;28;20196;-72
2021/08/05 08:54:32;;;;;;;7.60;7.00;;;23.60;56.50;;;;;;5089631;28;20201;-72
2021/08/05 08:57:03;;;;;;;8.17;7.53;;;23.60;56.50;;;;;;5097304;28;20611;-72
2021/08/05 08:59:35;;;;;;;8.63;7.93;;;23.60;56.50;;;;;;5103935;28;20196;-72
2021/08/05 09:02:07;;;;;;;8.07;7.40;;;23.60;56.50;;;;;;5098409;28;20276;-72
2021/08/05 09:04:38;;;;;;;8.90;8.10;;;23.60;56.50;;;;;;5107020;28;20204;-72
2021/08/05 09:07:11;;;;;;;8.47;7.80;;;23.70;56.60;;;;;;5098092;28;20838;-72
2021/08/05 09:09:43;;;;;;;8.13;7.53;;;23.60;56.60;;;;;;5091998;28;20210;-72
2021/08/05 09:12:18;;;;;;;6.80;6.30;;;23.70;56.70;;;;;;5094642;28;20296;-72
2021/08/05 09:14:53;;;;;;;7.63;7.03;;;23.70;56.70;;;;;;5108211;28;20706;-72
2021/08/05 09:17:35;;;;;;;7.70;7.10;;;23.70;56.70;;;;;;5091124;28;20212;-72
2021/08/05 09:20:12;;;;;;;7.43;6.80;;;23.70;56.80;;;;;;5095115;28;20203;-72
2021/08/05 09:22:48;;;;;;;7.67;7.07;;;23.70;56.80;;;;;;5091311;28;20198;-72
2021/08/05 09:25:28;;;;;;;7.40;6.80;;;23.70;56.80;;;;;;5099325;28;20274;-72
2021/08/05 09:28:13;;;;;;;7.93;7.33;;;23.70;56.80;;;;;;5108261;28;20200;-72
2021/08/05 09:30:46;;;;;;;7.87;7.27;;;23.70;56.90;;;;;;5100801;28;20534;-72
2021/08/05 09:33:19;;;;;;;7.93;7.23;;;23.70;56.90;;;;;;5111171;28;20274;-72
2021/08/05 09:35:51;;;;;;;7.97;7.37;;;23.70;56.90;;;;;;5106658;28;20195;-72
2021/08/05 09:38:27;;;;;;;7.20;6.60;;;23.70;56.90;;;;;;5110600;28;20262;-72
2021/08/05 09:41:07;;;;;;;7.53;6.93;;;23.80;57.00;;;;;;5104748;28;20220;-72
2021/08/05 09:43:38;;;;;;;6.90;6.40;;;23.80;57.10;;;;;;5108235;28;20273;-72
2021/08/05 09:46:13;;;;;;;7.50;6.90;;;23.80;57.20;;;;;;5106311;28;20215;-72
2021/08/05 09:48:45;;;;;;;7.23;6.53;;;23.80;57.20;;;;;;5102736;28;20200;-72
2021/08/05 09:51:18;;;;;;;6.97;6.37;;;23.80;57.30;;;;;;5109004;28;20211;-72
2021/08/05 09:54:03;;;;;;;8.00;7.30;;;23.80;57.30;;;;;;5110102;27;20201;-72
2021/08/05 09:56:41;;;;;;;7.63;6.93;;;23.90;57.40;;;;;;5104066;28;20230;-72
2021/08/05 09:59:18;;;;;;;7.10;6.50;;;23.90;57.50;;;;;;5106295;28;20249;-72
2021/08/05 10:02:05;;;;;;;8.00;7.40;;;23.90;57.50;;;;;;5108040;28;20559;-72
2021/08/05 10:04:37;;;;;;;8.23;7.47;;;23.90;57.50;;;;;;5104279;28;20204;-72
2021/08/05 10:07:11;;;;;;;8.17;7.50;;;23.90;57.50;;;;;;5107835;28;20298;-71
2021/08/05 10:09:44;;;;;;;7.70;7.10;;;24.00;57.60;;;;;;5107436;28;20217;-72
2021/08/05 10:12:21;;;;;;;7.77;7.17;;;23.90;57.60;;;;;;5086372;28;20196;-72
2021/08/05 10:15:06;;;;;;;8.23;7.43;;;24.00;57.70;;;;;;5110838;28;20186;-72
2021/08/05 10:17:40;;;;;;;7.93;7.23;;;24.00;57.80;;;;;;5106016;28;20220;-72
2021/08/05 10:20:16;;;;;;;8.10;7.43;;;24.00;57.80;;;;;;5096506;28;20207;-72
2021/08/05 10:22:58;;;;;;;7.63;7.07;;;24.00;57.90;;;;;;5084780;28;20200;-72
2021/08/05 10:25:30;;;;;;;7.70;7.10;;;24.00;57.90;;;;;;5100030;28;20216;-72
2021/08/05 10:28:01;;;;;;;7.93;7.33;;;24.10;58.00;;;;;;5102543;28;20199;-72
2021/08/05 10:30:42;;;;;;;7.90;7.30;;;24.10;58.70;;;;;;5100681;28;20204;-72
2021/08/05 10:33:24;;;;;;;7.63;6.93;;;24.10;58.10;;;;;;5107715;28;20279;-72
2021/08/05 10:35:56;;;;;;;8.33;7.63;;;24.10;58.20;;;;;;5092010;28;20613;-72
2021/08/05 10:38:28;;;;;;;7.30;6.70;;;24.20;58.20;;;;;;5094194;28;20200;-72
2021/08/05 10:41:01;;;;;;;6.83;6.30;;;24.20;58.30;;;;;;5084063;28;20196;-72
2021/08/05 10:43:34;;;;;;;6.90;6.40;;;24.20;58.20;;;;;;5107915;28;20197;-72
2021/08/05 10:46:08;;;;;;;7.63;7.03;;;24.20;58.20;;;;;;5100409;28;20235;-72
2021/08/05 10:48:44;;;;;;;7.53;6.87;;;24.20;58.30;;;;;;5107079;28;20196;-72
2021/08/05 10:51:14;;;;;;;6.97;6.37;;;24.30;58.40;;;;;;5099118;28;20694;-72
2021/08/05 10:53:45;;;;;;;7.43;6.83;;;24.30;58.50;;;;;;5105389;28;20207;-72
2021/08/05 10:56:30;;;;;;;8.53;7.67;;;24.30;58.40;;;;;;5103563;28;20263;-72
2021/08/05 10:59:16;;;;;;;7.60;7.00;;;24.30;58.60;;;;;;5105041;28;20249;-72
2021/08/05 11:02:00;;;;;;;7.43;6.83;;;24.30;58.60;;;;;;5109779;28;20188;-72
2021/08/05 11:04:40;;;;;;;6.80;6.30;;;24.40;58.70;;;;;;5101581;28;20189;-72
2021/08/05 11:07:28;;;;;;;6.87;6.27;;;24.40;58.60;;;;;;5111476;28;20728;-72
2021/08/05 11:10:22;;;;;;;7.60;6.90;;;24.40;58.80;;;;;;5106739;28;20189;-73
2021/08/05 11:13:12;;;;;;;6.50;6.00;;;24.40;58.80;;;;;;5106149;28;20201;-73
2021/08/05 11:16:12;;;;;;;6.13;5.73;;;24.40;58.80;;;;;;5109399;28;20193;-73
2021/08/05 11:19:00;;;;;;;6.70;6.20;;;24.50;59.00;;;;;;5101809;28;20677;-72
2021/08/05 11:21:35;;;;;;;6.40;5.90;;;24.50;59.00;;;;;;5103791;28;20196;-73
2021/08/05 11:24:02;;;;;;;6.10;5.60;;;24.40;59.00;;;;;;5102322;28;20529;-72
2021/08/05 11:26:34;;;;;;;6.47;5.87;;;24.50;59.00;;;;;;5108742;28;20224;-72
2021/08/05 11:29:04;;;;;;;6.20;5.63;;;24.50;59.10;;;;;;5096998;28;20209;-73
2021/08/05 11:31:39;;;;;;;6.53;6.03;;;24.60;59.10;;;;;;5100080;28;20201;-72
2021/08/05 11:34:13;;;;;;;6.33;5.83;;;24.60;59.20;;;;;;5098682;28;20248;-73
2021/08/05 11:36:47;;;;;;;6.70;6.20;;;24.60;59.20;;;;;;5103793;28;20208;-72
2021/08/05 11:39:24;;;;;;;7.07;6.47;;;24.60;59.30;;;;;;5103540;28;20235;-72
2021/08/05 11:42:15;;;;;;;7.50;6.90;;;24.60;59.30;;;;;;5109738;28;20204;-72
2021/08/05 11:45:05;;;;;;;6.93;6.43;;;24.70;59.40;;;;;;5116151;28;20192;-73
2021/08/05 11:47:46;;;;;;;8.37;7.70;;;24.70;59.50;;;;;;5118244;28;20203;-72
2021/08/05 11:50:20;;;;;;;8.37;7.63;;;24.70;59.60;;;;;;5106649;28;20192;-71
2021/08/05 11:53:11;;;;;;;8.93;8.23;;;24.70;59.70;;;;;;5106072;28;20188;-71
2021/08/05 11:55:47;;;;;;;8.07;7.30;;;24.70;59.80;;;;;;5108063;28;20289;-71
2021/08/05 11:58:17;;;;;;;8.30;7.60;;;24.80;59.90;;;;;;5109201;28;20593;-71
2021/08/05 12:00:49;;;;;;;8.90;8.10;;;24.80;60.00;;;;;;5106818;28;20207;-71
2021/08/05 12:03:18;;;;;;;8.37;7.77;;;24.80;60.00;;;;;;5108264;28;20257;-71
2021/08/05 12:05:49;;;;;;;8.23;7.53;;;24.80;60.10;;;;;;5100653;28;20232;-71
2021/08/05 12:08:22;;;;;;;7.90;7.23;;;24.90;60.20;;;;;;5097187;28;20196;-71
2021/08/05 12:10:53;;;;;;;7.80;7.10;;;24.90;60.10;;;;;;5098881;28;20546;-71
2021/08/05 12:13:40;;;;;;;7.27;6.67;;;24.90;60.10;;;;;;5109376;28;20207;-71
2021/08/05 12:16:16;;;;;;;7.50;6.80;;;24.90;60.20;;;;;;5102422;28;20196;-71
2021/08/05 12:18:48;;;;;;;6.93;6.43;;;24.90;60.30;;;;;;5087635;28;20633;-71
2021/08/05 12:21:18;;;;;;;7.80;7.20;;;24.90;60.20;;;;;;5104382;28;20513;-71
2021/08/05 12:23:53;;;;;;;7.13;6.53;;;25.00;60.30;;;;;;5107097;28;20255;-71
2021/08/05 12:26:35;;;;;;;6.63;6.13;;;25.00;60.30;;;;;;5109137;28;20218;-71
2021/08/05 12:29:11;;;;;;;5.90;5.50;;;25.00;60.30;;;;;;5099270;28;20199;-71
2021/08/05 12:31:44;;;;;;;6.23;5.63;;;25.00;60.30;;;;;;5100501;28;20671;-72
2021/08/05 12:34:18;;;;;;;5.60;5.20;;;25.00;60.30;;;;;;5102802;28;20202;-72
2021/08/05 12:36:49;;;;;;;5.77;5.27;;;25.00;60.40;;;;;;5108507;28;20266;-73
2021/08/05 12:39:24;;;;;;;5.57;5.17;;;25.10;60.40;;;;;;5101482;28;20200;-72
2021/08/05 12:41:55;;;;;;;5.47;5.07;;;25.10;60.40;;;;;;5107052;28;20572;-72
2021/08/05 12:44:33;;;;;;;6.17;5.67;;;25.10;60.40;;;;;;5102659;28;20192;-72
2021/08/05 12:47:05;;;;;;;5.33;4.83;;;25.10;60.40;;;;;;5110168;27;20225;-72
2021/08/05 12:49:37;;;;;;;5.67;5.17;;;25.20;60.50;;;;;;5093166;28;20188;-72
2021/08/05 12:52:09;;;;;;;5.20;4.80;;;25.20;60.40;;;;;;5105456;28;20200;-72
2021/08/05 12:54:38;;;;;;;4.97;4.67;;;25.20;60.40;;;;;;5104878;28;20543;-72
2021/08/05 12:57:16;;;;;;;5.07;4.67;;;25.20;60.50;;;;;;5102893;28;20598;-73
2021/08/05 12:59:57;;;;;;;5.50;5.10;;;25.30;60.50;;;;;;5091556;28;20204;-72
2021/08/05 13:02:26;;;;;;;5.47;5.07;;;25.20;60.30;;;;;;5100451;28;20196;-72
2021/08/05 13:05:12;;;;;;;5.13;4.73;;;25.30;60.40;;;;;;5107367;28;20606;-72
2021/08/05 13:07:44;;;;;;;5.90;5.37;;;25.30;61.00;;;;;;5095213;28;20302;-72
2021/08/05 13:10:15;;;;;;;5.43;5.03;;;25.30;60.40;;;;;;5095104;28;20207;-72
2021/08/05 13:12:50;;;;;;;5.90;5.50;;;25.30;60.40;;;;;;5105956;28;20208;-72
2021/08/05 13:15:32;;;;;;;5.53;5.13;;;25.40;60.40;;;;;;5107628;28;20645;-73
2021/08/05 13:18:03;;;;;;;5.77;5.37;;;25.40;60.30;;;;;;5102845;28;20665;-72
2021/08/05 13:20:35;;;;;;;5.10;4.70;;;25.40;60.20;;;;;;5100752;28;20556;-72
2021/08/05 13:23:27;;;;;;;5.23;4.83;;;25.40;60.20;;;;;;5108921;28;20204;-72